Time;durP1;ratioP1;P1;durP2;ratioP2;P2;SDS_P1;SDS_P2;PMS_P1;PMS_P2;Temp;Humidity;BMP_temperature;BMP_pressure;BME280_temperature;BME280_humidity;BME280_pressure;Samples;Min_cycle;Max_cycle;Signal;HPM_P1;HPM_P2
2023/02/15 00:00:03;;;;;;;;;59.00;48.33;;;;;;;;5068096;28;8843;-72
2023/02/15 00:02:28;;;;;;;;;59.50;48.00;;;;;;;;5069563;28;8979;-73
2023/02/15 00:04:55;;;;;;;;;79.00;64.25;;;;;;;;5069702;28;8843;-72
2023/02/15 00:07:21;;;;;;;;;55.25;45.50;;;;;;;;5069752;28;8873;-73
2023/02/15 00:09:46;;;;;;;;;64.00;50.50;;;;;;;;5065855;28;13553;-73
2023/02/15 00:12:12;;;;;;;;;66.00;51.25;;;;;;;;5065891;28;13565;-72
2023/02/15 00:14:37;;;;;;;;;72.75;58.75;;;;;;;;5064263;28;13843;-73
2023/02/15 00:17:02;;;;;;;;;70.00;56.00;;;;;;;;5065423;28;13582;-73
2023/02/15 00:19:28;;;;;;;;;57.00;50.00;;;;;;;;5069733;28;8824;-73
2023/02/15 00:21:53;;;;;;;;;62.25;52.00;;;;;;;;5069236;28;8831;-73
2023/02/15 00:24:19;;;;;;;;;65.00;52.67;;;;;;;;5065387;28;13543;-74
2023/02/15 00:26:44;;;;;;;;;68.50;53.50;;;;;;;;5065349;28;13523;-73
2023/02/15 00:29:11;;;;;;;;;72.00;55.50;;;;;;;;5065513;28;13512;-73
2023/02/15 00:31:37;;;;;;;;;74.50;58.75;;;;;;;;5065827;28;13536;-73
2023/02/15 00:34:15;;;;;;;;;66.25;54.25;;;;;;;;5065458;28;13538;-73
2023/02/15 00:36:40;;;;;;;;;55.00;41.33;;;;;;;;5069807;28;8849;-73
2023/02/15 00:39:06;;;;;;;;;63.25;51.50;;;;;;;;5065210;28;13559;-74
2023/02/15 00:41:31;;;;;;;;;63.50;52.00;;;;;;;;5068443;28;13544;-73
2023/02/15 00:43:56;;;;;;;;;67.00;55.33;;;;;;;;5069246;28;13536;-73
2023/02/15 00:46:22;;;;;;;;;63.00;51.00;;;;;;;;5069398;28;13531;-73
2023/02/15 00:48:47;;;;;;;;;68.00;54.33;;;;;;;;5069415;28;15053;-72
2023/02/15 00:51:12;;;;;;;;;57.50;47.50;;;;;;;;5073284;28;8792;-73
2023/02/15 00:53:38;;;;;;;;;60.50;50.00;;;;;;;;5069470;28;13522;-73
2023/02/15 00:56:03;;;;;;;;;52.50;47.25;;;;;;;;5072878;28;8777;-73
2023/02/15 00:58:28;;;;;;;;;65.67;53.00;;;;;;;;5068680;28;13717;-73
2023/02/15 01:00:53;;;;;;;;;62.00;49.33;;;;;;;;5068934;28;13502;-74
2023/02/15 01:03:20;;;;;;;;;46.25;41.50;;;;;;;;5072589;28;11472;-73
2023/02/15 01:05:46;;;;;;;;;65.50;53.00;;;;;;;;5068763;28;13555;-74
2023/02/15 01:08:11;;;;;;;;;63.75;51.25;;;;;;;;5068694;28;13590;-73
2023/02/15 01:10:36;;;;;;;;;62.75;48.50;;;;;;;;5068894;28;13621;-74
2023/02/15 01:13:02;;;;;;;;;66.67;53.00;;;;;;;;5068811;28;14266;-72
2023/02/15 01:15:27;;;;;;;;;69.67;54.00;;;;;;;;5068663;28;13475;-72
2023/02/15 01:17:53;;;;;;;;;60.75;50.00;;;;;;;;5068715;28;14285;-72
2023/02/15 01:20:23;;;;;;;;;56.75;48.00;;;;;;;;5072862;28;8899;-72
2023/02/15 01:22:49;;;;;;;;;58.25;49.50;;;;;;;;5072546;28;8788;-73
2023/02/15 01:25:15;;;;;;;;;59.00;49.25;;;;;;;;5072356;28;8792;-74
2023/02/15 01:27:40;;;;;;;;;63.00;50.50;;;;;;;;5072320;28;8792;-73
2023/02/15 01:30:06;;;;;;;;;61.75;48.75;;;;;;;;5072173;28;8804;-73
2023/02/15 01:32:31;;;;;;;;;51.00;44.50;;;;;;;;5072286;28;8835;-73
2023/02/15 01:34:57;;;;;;;;;63.75;48.25;;;;;;;;5072080;28;8879;-72
2023/02/15 01:37:22;;;;;;;;;64.25;49.00;;;;;;;;5071803;28;8795;-73
2023/02/15 01:39:47;;;;;;;;;52.00;45.25;;;;;;;;5072009;28;8966;-72
2023/02/15 01:42:13;;;;;;;;;54.25;45.75;;;;;;;;5072258;28;9543;-73
2023/02/15 01:44:47;;;;;;;;;56.00;44.50;;;;;;;;5073144;28;8878;-73
2023/02/15 01:47:14;;;;;;;;;49.75;43.50;;;;;;;;5074417;28;8879;-73
2023/02/15 01:49:42;;;;;;;;;61.75;50.75;;;;;;;;5074193;28;8804;-73
2023/02/15 01:52:09;;;;;;;;;50.00;45.50;;;;;;;;5071416;28;9354;-73
2023/02/15 01:54:36;;;;;;;;;62.75;48.25;;;;;;;;5071838;28;8780;-74
2023/02/15 01:57:04;;;;;;;;;59.00;50.25;;;;;;;;5072031;28;8823;-74
2023/02/15 01:59:31;;;;;;;;;59.50;47.50;;;;;;;;5071573;28;8812;-72
2023/02/15 02:01:56;;;;;;;;;;;;;;;;;;5074111;28;9562;-72
2023/02/15 02:04:24;;;;;;;;;56.50;46.50;;;;;;;;5071928;28;9510;-72
2023/02/15 02:06:50;;;;;;;;;55.75;47.50;;;;;;;;5071557;28;8879;-73
2023/02/15 02:09:15;;;;;;;;;47.25;43.00;;;;;;;;5071672;28;8947;-74
2023/02/15 02:11:41;;;;;;;;;66.25;51.00;;;;;;;;5070038;28;8881;-74
2023/02/15 02:14:07;;;;;;;;;49.75;46.25;;;;;;;;5071368;28;8808;-74
2023/02/15 02:16:53;;;;;;;;;41.00;36.25;;;;;;;;5071338;28;8861;-73
2023/02/15 02:19:37;;;;;;;;;54.00;46.00;;;;;;;;5071670;28;8910;-74
2023/02/15 02:22:26;;;;;;;;;63.50;50.50;;;;;;;;5071491;28;8942;-75
2023/02/15 02:25:10;;;;;;;;;60.75;48.50;;;;;;;;5071375;28;9518;-73
2023/02/15 02:27:41;;;;;;;;;59.00;49.50;;;;;;;;5071113;28;8815;-74
2023/02/15 02:30:19;;;;;;;;;53.50;47.00;;;;;;;;5071320;28;9564;-74
2023/02/15 02:32:47;;;;;;;;;63.00;46.25;;;;;;;;5071061;28;8792;-74
2023/02/15 02:35:15;;;;;;;;;64.50;49.75;;;;;;;;5071043;28;8899;-73
2023/02/15 02:38:03;;;;;;;;;62.50;50.00;;;;;;;;5066027;28;13558;-73
2023/02/15 02:41:04;;;;;;;;;58.50;45.50;;;;;;;;5070975;28;8816;-73
2023/02/15 02:43:40;;;;;;;;;57.25;49.00;;;;;;;;5028470;28;9597;-74
2023/02/15 02:46:10;;;;;;;;;50.75;45.75;;;;;;;;5028550;28;8785;-74
2023/02/15 02:48:36;;;;;;;;;60.25;46.75;;;;;;;;5028474;28;8810;-74
2023/02/15 02:51:01;;;;;;;;;55.50;46.00;;;;;;;;5028605;28;9464;-74
2023/02/15 02:53:29;;;;;;;;;57.50;46.50;;;;;;;;5028468;28;8805;-74
2023/02/15 02:56:16;;;;;;;;;52.25;42.25;;;;;;;;5028238;28;9543;-74
2023/02/15 02:58:44;;;;;;;;;61.25;50.00;;;;;;;;5028119;28;8812;-72
2023/02/15 03:01:19;;;;;;;;;53.25;45.50;;;;;;;;5027954;28;8780;-74
2023/02/15 03:03:47;;;;;;;;;48.25;43.00;;;;;;;;5027110;28;8953;-73
2023/02/15 03:06:17;;;;;;;;;46.75;38.00;;;;;;;;5011332;28;8828;-74
2023/02/15 03:08:47;;;;;;;;;59.00;44.75;;;;;;;;5011379;28;8816;-74
2023/02/15 03:11:12;;;;;;;;;56.50;45.00;;;;;;;;5027792;28;8800;-73
2023/02/15 03:13:37;;;;;;;;;52.50;41.00;;;;;;;;5027784;28;8839;-73
2023/02/15 03:18:56;;;;;;;;;57.25;47.00;;;;;;;;5070286;28;8816;-73
2023/02/15 03:21:25;;;;;;;;;52.00;44.75;;;;;;;;5070091;28;8891;-73
2023/02/15 03:23:58;;;;;;;;;55.00;48.25;;;;;;;;5069809;28;8753;-73
2023/02/15 03:26:24;;;;;;;;;61.00;48.50;;;;;;;;5070129;28;8785;-73
2023/02/15 03:28:51;;;;;;;;;58.25;44.75;;;;;;;;5069853;28;8800;-73
2023/02/15 03:31:18;;;;;;;;;51.50;43.00;;;;;;;;5068531;28;8796;-73
2023/02/15 03:34:09;;;;;;;;;50.75;44.25;;;;;;;;5069787;28;8777;-73
2023/02/15 03:36:39;;;;;;;;;55.75;47.50;;;;;;;;5067659;28;9503;-73
2023/02/15 03:39:09;;;;;;;;;52.75;46.50;;;;;;;;5069671;28;8889;-73
2023/02/15 03:41:39;;;;;;;;;60.50;44.75;;;;;;;;5069632;28;8788;-72
2023/02/15 03:44:06;;;;;;;;;63.00;47.75;;;;;;;;5069576;28;8776;-72
2023/02/15 03:46:34;;;;;;;;;55.50;43.25;;;;;;;;5069514;28;9561;-72
2023/02/15 03:49:06;;;;;;;;;42.50;37.00;;;;;;;;5069427;28;8788;-73
2023/02/15 03:51:35;;;;;;;;;58.00;45.50;;;;;;;;5069640;28;8769;-74
2023/02/15 03:54:05;;;;;;;;;49.75;44.00;;;;;;;;5069543;28;8780;-73
2023/02/15 03:56:30;;;;;;;;;47.25;42.50;;;;;;;;5069409;28;8788;-73
2023/02/15 04:01:59;;;;;;;;;55.00;45.25;;;;;;;;5071776;28;8776;-73
2023/02/15 04:04:28;;;;;;;;;54.25;46.00;;;;;;;;5069553;28;8800;-73
2023/02/15 04:06:53;;;;;;;;;51.25;43.25;;;;;;;;5069269;28;8865;-73
2023/02/15 04:12:02;;;;;;;;;50.00;39.50;;;;;;;;5069200;28;8768;-73
2023/02/15 04:17:11;;;;;;;;;51.00;46.25;;;;;;;;5069080;28;8895;-74
2023/02/15 04:25:13;;;;;;;;;57.50;46.25;;;;;;;;5069183;28;8796;-73
2023/02/15 04:27:39;;;;;;;;;51.50;46.75;;;;;;;;5069145;28;8830;-73
2023/02/15 04:30:05;;;;;;;;;54.25;46.75;;;;;;;;5069103;28;8796;-74
2023/02/15 04:32:30;;;;;;;;;45.75;36.75;;;;;;;;5068953;28;8792;-75
2023/02/15 10:11:53;;;;;;;;;74.00;58.00;;;;;;;;5142675;27;13407;-71
2023/02/15 10:14:28;;;;;;;;;71.25;56.75;;;;;;;;5146603;27;8809;-71
2023/02/15 10:17:10;;;;;;;;;66.00;52.25;;;;;;;;5146652;27;9539;-71
2023/02/15 10:19:47;;;;;;;;;67.50;55.25;;;;;;;;5128308;27;8813;-71
2023/02/15 10:22:36;;;;;;;;;67.00;50.00;;;;;;;;5146623;27;8881;-72
2023/02/15 10:25:17;;;;;;;;;67.75;53.25;;;;;;;;5132817;27;8877;-72
2023/02/15 10:27:47;;;;;;;;;70.25;53.75;;;;;;;;5147389;27;8789;-72
2023/02/15 10:30:13;;;;;;;;;71.25;56.75;;;;;;;;5147810;27;8821;-72
2023/02/15 10:32:59;;;;;;;;;73.75;57.75;;;;;;;;5147881;27;8778;-71
2023/02/15 10:35:24;;;;;;;;;67.00;53.00;;;;;;;;5146981;27;8781;-71
2023/02/15 10:37:57;;;;;;;;;72.00;56.75;;;;;;;;5147764;27;8786;-71
2023/02/15 10:40:22;;;;;;;;;74.75;57.25;;;;;;;;5147856;27;8801;-71
2023/02/15 10:57:10;;;;;;;;;74.00;58.25;;;;;;;;5082492;27;13659;-75
2023/02/15 10:59:36;;;;;;;;;70.33;56.00;;;;;;;;5086595;28;8806;-73
2023/02/15 11:02:01;;;;;;;;;67.00;51.33;;;;;;;;5086463;28;8826;-73
2023/02/15 11:04:29;;;;;;;;;64.00;50.67;;;;;;;;5085877;28;8894;-73
2023/02/15 11:06:59;;;;;;;;;61.50;49.00;;;;;;;;5085228;28;8852;-74
2023/02/15 11:09:29;;;;;;;;;65.50;53.75;;;;;;;;5084980;28;11547;-71
2023/02/15 11:11:57;;;;;;;;;65.75;52.75;;;;;;;;5086258;28;11533;-74
2023/02/15 11:14:41;;;;;;;;;65.00;51.00;;;;;;;;5086129;28;11542;-73
2023/02/15 11:17:10;;;;;;;;;60.00;48.50;;;;;;;;5075586;28;11579;-71
2023/02/15 11:20:02;;;;;;;;;65.00;50.25;;;;;;;;5065480;28;11530;-70
2023/02/15 11:22:29;;;;;;;;;61.50;48.50;;;;;;;;5056395;28;11539;-71
2023/02/15 11:24:55;;;;;;;;;63.25;49.25;;;;;;;;5065445;28;11480;-69
2023/02/15 11:27:23;;;;;;;;;65.50;51.00;;;;;;;;5063089;28;11550;-70
2023/02/15 11:29:58;;;;;;;;;65.25;50.25;;;;;;;;5064673;28;11604;-70
2023/02/15 11:32:23;;;;;;;;;66.25;51.00;;;;;;;;5062230;28;11511;-69
2023/02/15 11:34:52;;;;;;;;;68.75;53.00;;;;;;;;5062543;28;11617;-70
2023/02/15 11:37:20;;;;;;;;;67.75;54.00;;;;;;;;5064392;28;8803;-69
2023/02/15 11:39:51;;;;;;;;;73.75;57.75;;;;;;;;5064329;28;11563;-69
2023/02/15 11:42:19;;;;;;;;;72.00;57.00;;;;;;;;5065004;28;11612;-69
2023/02/15 11:45:04;;;;;;;;;80.67;60.33;;;;;;;;5064482;28;11563;-69
2023/02/15 11:47:30;;;;;;;;;78.67;60.33;;;;;;;;5061791;28;8847;-73
2023/02/15 11:49:56;;;;;;;;;79.67;64.00;;;;;;;;5064368;28;8813;-72
2023/02/15 11:52:21;;;;;;;;;80.67;60.67;;;;;;;;5064287;28;8841;-72
2023/02/15 11:54:51;;;;;;;;;84.00;63.67;;;;;;;;5067180;28;9512;-71
2023/02/15 11:57:29;;;;;;;;;86.00;64.00;;;;;;;;5098527;28;8841;-70
2023/02/15 12:00:14;;;;;;;;;81.00;63.00;;;;;;;;5093431;28;8831;-69
2023/02/15 12:02:42;;;;;;;;;79.33;60.00;;;;;;;;5063662;28;8792;-70
2023/02/15 12:05:16;;;;;;;;;86.33;65.67;;;;;;;;5085188;28;8807;-70
2023/02/15 12:08:00;;;;;;;;;87.33;66.00;;;;;;;;5075289;28;8823;-70
2023/02/15 12:10:29;;;;;;;;;80.33;64.67;;;;;;;;5070955;28;8812;-71
2023/02/15 12:13:09;;;;;;;;;80.33;64.00;;;;;;;;5070395;28;8772;-72
2023/02/15 12:15:35;;;;;;;;;81.67;63.67;;;;;;;;5071616;28;8831;-71
2023/02/15 12:18:01;;;;;;;;;85.33;65.33;;;;;;;;5071550;28;8872;-71
2023/02/15 12:20:31;;;;;;;;;86.00;64.67;;;;;;;;5071900;28;8890;-71
2023/02/15 12:23:04;;;;;;;;;82.67;64.00;;;;;;;;5071413;28;8803;-72
2023/02/15 12:25:35;;;;;;;;;87.00;67.00;;;;;;;;5071286;28;8796;-71
2023/02/15 12:28:02;;;;;;;;;79.00;61.00;;;;;;;;5090369;28;8782;-71
2023/02/15 12:30:30;;;;;;;;;85.33;66.33;;;;;;;;5091023;28;8786;-71
2023/02/15 12:33:02;;;;;;;;;86.00;65.00;;;;;;;;5091349;28;8791;-71
2023/02/15 12:35:30;;;;;;;;;85.00;65.67;;;;;;;;5091341;28;8844;-71
2023/02/15 12:38:05;;;;;;;;;87.25;67.25;;;;;;;;5091226;28;8794;-71
2023/02/15 12:40:31;;;;;;;;;84.75;63.75;;;;;;;;5091399;28;8890;-70
2023/02/15 12:42:57;;;;;;;;;85.00;67.50;;;;;;;;5091104;28;8790;-71
2023/02/15 12:45:32;;;;;;;;;87.25;66.50;;;;;;;;5091142;28;8793;-70
2023/02/15 12:48:17;;;;;;;;;91.75;67.25;;;;;;;;5090763;28;8897;-70
2023/02/15 12:50:44;;;;;;;;;88.00;67.25;;;;;;;;5091103;28;8847;-70
2023/02/15 12:53:28;;;;;;;;;90.00;70.25;;;;;;;;5072837;28;8798;-71
2023/02/15 12:55:59;;;;;;;;;87.75;65.75;;;;;;;;5090692;28;8923;-71
2023/02/15 12:58:30;;;;;;;;;88.50;67.00;;;;;;;;5090859;28;9586;-72
2023/02/15 13:01:13;;;;;;;;;91.50;67.75;;;;;;;;5090885;28;8804;-72
2023/02/15 13:03:58;;;;;;;;;89.50;68.25;;;;;;;;5093792;28;8956;-72
2023/02/15 13:06:25;;;;;;;;;91.25;71.00;;;;;;;;5090619;28;8802;-72
2023/02/15 13:09:10;;;;;;;;;91.50;68.00;;;;;;;;5091034;28;8790;-72
2023/02/15 13:11:37;;;;;;;;;90.50;67.25;;;;;;;;5090185;28;8814;-71
2023/02/15 13:14:04;;;;;;;;;80.25;63.25;;;;;;;;5072353;28;8803;-70
2023/02/15 13:16:39;;;;;;;;;80.67;62.00;;;;;;;;5090603;28;8809;-71
2023/02/15 13:19:12;;;;;;;;;80.00;61.67;;;;;;;;5089887;28;8782;-71
2023/02/15 13:21:39;;;;;;;;;84.50;64.50;;;;;;;;5091076;28;8874;-72
2023/02/15 13:24:07;;;;;;;;;84.25;64.25;;;;;;;;5090535;28;8778;-71
2023/02/15 13:26:34;;;;;;;;;79.50;63.00;;;;;;;;5090069;28;8940;-72
2023/02/15 13:29:05;;;;;;;;;76.00;61.50;;;;;;;;5090558;28;8778;-71
2023/02/15 13:31:33;;;;;;;;;79.25;63.25;;;;;;;;5090721;28;8782;-72
2023/02/15 13:33:58;;;;;;;;;81.00;60.75;;;;;;;;5090479;28;8909;-72
2023/02/15 13:36:23;;;;;;;;;76.00;59.50;;;;;;;;5090283;28;8928;-72
2023/02/15 13:39:11;;;;;;;;;76.25;60.75;;;;;;;;5090313;28;8809;-71
2023/02/15 13:41:55;;;;;;;;;72.00;57.33;;;;;;;;5090131;28;8818;-72
2023/02/15 13:44:20;;;;;;;;;76.25;60.25;;;;;;;;5090243;28;8790;-71
2023/02/15 13:47:05;;;;;;;;;75.00;59.00;;;;;;;;5089825;28;8800;-71
2023/02/15 13:49:31;;;;;;;;;79.33;62.00;;;;;;;;5090553;28;9516;-71
2023/02/15 13:51:56;;;;;;;;;80.67;63.00;;;;;;;;5090293;28;8770;-71
2023/02/15 13:54:44;;;;;;;;;73.33;58.67;;;;;;;;5090163;28;8789;-72
2023/02/15 13:57:28;;;;;;;;;73.00;58.67;;;;;;;;5089321;28;8814;-71
2023/02/15 14:00:20;;;;;;;;;79.67;59.33;;;;;;;;5071952;28;8940;-71
2023/02/15 14:03:04;;;;;;;;;76.67;58.00;;;;;;;;5085840;28;8797;-71
2023/02/15 14:05:29;;;;;;;;;79.00;61.00;;;;;;;;5089278;28;8798;-70
2023/02/15 14:08:09;;;;;;;;;80.67;63.00;;;;;;;;5090009;28;9492;-71
2023/02/15 14:10:38;;;;;;;;;72.67;58.67;;;;;;;;5089953;28;8824;-71
2023/02/15 14:13:21;;;;;;;;;78.33;59.33;;;;;;;;5089654;28;8863;-70
2023/02/15 14:15:51;;;;;;;;;72.67;57.67;;;;;;;;5089539;28;8871;-71
2023/02/15 14:18:33;;;;;;;;;79.00;63.00;;;;;;;;5089689;28;8786;-71
2023/02/15 14:21:06;;;;;;;;;81.33;60.67;;;;;;;;5089843;28;8833;-71
2023/02/15 14:23:38;;;;;;;;;72.67;56.67;;;;;;;;5088983;28;8805;-72
2023/02/15 14:26:14;;;;;;;;;76.33;59.33;;;;;;;;5089402;28;8810;-72
2023/02/15 14:28:50;;;;;;;;;74.33;59.00;;;;;;;;5070771;28;8812;-71
2023/02/15 14:31:27;;;;;;;;;77.33;61.33;;;;;;;;5088953;28;8914;-71
2023/02/15 14:33:55;;;;;;;;;71.00;56.00;;;;;;;;5071048;28;8786;-71
2023/02/15 14:36:20;;;;;;;;;74.33;59.00;;;;;;;;5070845;28;8848;-72
2023/02/15 14:39:04;;;;;;;;;74.00;57.00;;;;;;;;5071063;28;8802;-71
2023/02/15 14:41:50;;;;;;;;;72.33;57.00;;;;;;;;5088761;28;8798;-71
2023/02/15 14:44:23;;;;;;;;;76.00;58.67;;;;;;;;5089207;28;8797;-71
2023/02/15 14:47:01;;;;;;;;;69.00;56.00;;;;;;;;5089252;28;8794;-71
2023/02/15 15:44:54;;;;;;;;;77.00;54.67;;;;;;;;5095455;27;13545;-70
2023/02/15 15:47:27;;;;;;;;;71.00;54.33;;;;;;;;5066334;28;8825;-71
2023/02/15 15:49:55;;;;;;;;;66.33;52.00;;;;;;;;5066271;28;8820;-69
2023/02/15 15:52:21;;;;;;;;;54.00;44.67;;;;;;;;5065786;28;8897;-70
2023/02/15 15:54:48;;;;;;;;;65.00;53.33;;;;;;;;5066513;28;8809;-69
2023/02/15 15:57:26;;;;;;;;;63.33;49.33;;;;;;;;5062448;28;13669;-68
2023/02/15 15:59:51;;;;;;;;;66.00;51.67;;;;;;;;5066196;28;8813;-67
2023/02/15 16:02:17;;;;;;;;;64.33;53.33;;;;;;;;5066023;28;8844;-69
2023/02/15 16:04:43;;;;;;;;;61.67;52.00;;;;;;;;5062314;28;13610;-68
2023/02/15 16:07:17;;;;;;;;;68.75;55.00;;;;;;;;5061922;28;13587;-68
2023/02/15 16:09:59;;;;;;;;;71.75;57.25;;;;;;;;5061493;28;14375;-67
2023/02/15 16:12:26;;;;;;;;;66.00;52.00;;;;;;;;5063723;28;8805;-67
2023/02/15 16:14:53;;;;;;;;;65.00;53.67;;;;;;;;5063674;28;8843;-71
2023/02/15 16:17:22;;;;;;;;;55.67;49.67;;;;;;;;5062985;28;8809;-64
2023/02/15 16:19:48;;;;;;;;;68.00;50.67;;;;;;;;5062197;28;8843;-64
2023/02/15 16:22:15;;;;;;;;;64.00;50.33;;;;;;;;5063758;28;8943;-64
2023/02/15 16:25:00;;;;;;;;;78.50;59.50;;;;;;;;5059901;28;13575;-64
2023/02/15 16:27:25;;;;;;;;;63.33;53.33;;;;;;;;5060038;28;13587;-64
2023/02/15 16:29:50;;;;;;;;;61.67;51.33;;;;;;;;5065810;28;8817;-64
2023/02/15 16:32:20;;;;;;;;;71.50;58.00;;;;;;;;5061716;28;13600;-65
2023/02/15 16:34:59;;;;;;;;;66.67;53.00;;;;;;;;5065764;28;8805;-64
2023/02/15 16:37:26;;;;;;;;;81.25;59.00;;;;;;;;5061710;28;13597;-64
2023/02/15 16:39:52;;;;;;;;;78.75;60.00;;;;;;;;5061474;28;13625;-64
2023/02/15 16:42:18;;;;;;;;;78.00;57.67;;;;;;;;5061361;28;13924;-64
2023/02/15 16:44:45;;;;;;;;;73.00;56.67;;;;;;;;5060776;28;13750;-64
2023/02/15 16:47:31;;;;;;;;;68.00;54.00;;;;;;;;5065398;28;11711;-65
2023/02/15 16:49:58;;;;;;;;;73.20;57.60;;;;;;;;5061321;28;13772;-63
2023/02/15 16:52:24;;;;;;;;;64.67;55.00;;;;;;;;5065270;28;8807;-63
2023/02/15 16:55:12;;;;;;;;;76.75;58.25;;;;;;;;5055096;28;13576;-64
2023/02/15 16:57:38;;;;;;;;;67.33;53.33;;;;;;;;5059842;28;8829;-68
2023/02/15 17:00:07;;;;;;;;;63.00;51.00;;;;;;;;5040341;28;8847;-68
2023/02/15 17:02:34;;;;;;;;;68.00;55.75;;;;;;;;5025877;28;13640;-69
2023/02/15 17:05:20;;;;;;;;;69.40;56.00;;;;;;;;5057024;28;14360;-68
2023/02/15 17:08:04;;;;;;;;;55.00;48.00;;;;;;;;5071163;28;8917;-67
2023/02/15 17:10:31;;;;;;;;;66.00;53.33;;;;;;;;5071713;28;8793;-68
2023/02/15 17:13:01;;;;;;;;;68.33;53.33;;;;;;;;5058555;28;8809;-69
2023/02/15 17:15:26;;;;;;;;;;;;;;;;;;5053903;28;9000;-70
2023/02/15 17:17:51;;;;;;;;;69.00;54.00;;;;;;;;5051476;28;8785;-67
2023/02/15 17:20:18;;;;;;;;;59.67;50.00;;;;;;;;5050175;28;8920;-68
2023/02/15 17:22:44;;;;;;;;;71.75;56.00;;;;;;;;5047156;28;13664;-68
2023/02/15 17:25:17;;;;;;;;;63.67;53.00;;;;;;;;5044247;28;14462;-68
2023/02/15 17:27:43;;;;;;;;;64.67;50.67;;;;;;;;5050725;28;8820;-69
2023/02/15 17:30:17;;;;;;;;;63.33;50.33;;;;;;;;5051015;28;8821;-68
2023/02/15 17:32:53;;;;;;;;;69.50;55.25;;;;;;;;5026690;28;13591;-68
2023/02/15 17:35:21;;;;;;;;;70.50;55.75;;;;;;;;5036014;28;13613;-67
2023/02/15 17:37:47;;;;;;;;;80.00;60.50;;;;;;;;5046690;28;13966;-67
2023/02/15 17:40:22;;;;;;;;;75.20;58.60;;;;;;;;5045894;28;14501;-68
2023/02/15 17:42:47;;;;;;;;;69.67;54.00;;;;;;;;5050250;28;9567;-67
2023/02/15 17:45:12;;;;;;;;;67.33;54.67;;;;;;;;5050916;28;8807;-67
2023/02/15 17:47:40;;;;;;;;;72.00;57.00;;;;;;;;5047074;28;13612;-68
2023/02/15 17:50:06;;;;;;;;;74.00;57.40;;;;;;;;5045416;28;14391;-67
2023/02/15 17:52:31;;;;;;;;;69.33;55.67;;;;;;;;5050552;28;9544;-68
2023/02/15 17:57:40;;;;;;;;;78.60;60.20;;;;;;;;5046229;28;13701;-67
2023/02/15 18:13:52;;;;;;;;;68.33;57.00;;;;;;;;5066091;28;14325;-68
2023/02/15 18:16:21;;;;;;;;;74.67;60.00;;;;;;;;5066158;28;13582;-67
2023/02/15 18:18:46;;;;;;;;;72.67;56.67;;;;;;;;5066709;28;13585;-67
2023/02/15 18:21:12;;;;;;;;;83.00;64.00;;;;;;;;5047521;28;13587;-68
2023/02/15 18:23:38;;;;;;;;;67.33;54.00;;;;;;;;5049448;28;8844;-67
2023/02/15 18:26:03;;;;;;;;;73.67;58.67;;;;;;;;5066713;28;8817;-68
2023/02/15 18:28:28;;;;;;;;;79.75;62.75;;;;;;;;5045475;28;13566;-67
2023/02/15 18:30:54;;;;;;;;;69.67;57.67;;;;;;;;5066503;28;8799;-68
2023/02/15 18:33:33;;;;;;;;;70.33;55.33;;;;;;;;5068029;28;8819;-68
2023/02/15 18:35:59;;;;;;;;;68.33;54.33;;;;;;;;5069730;28;9632;-67
2023/02/15 18:38:25;;;;;;;;;81.00;62.25;;;;;;;;5065528;28;13573;-70
2023/02/15 18:40:50;;;;;;;;;69.67;56.00;;;;;;;;5065459;28;13631;-68
2023/02/15 18:43:15;;;;;;;;;76.67;59.67;;;;;;;;5051532;28;8856;-69
2023/02/15 18:45:40;;;;;;;;;78.00;62.00;;;;;;;;5049684;28;8839;-68
2023/02/15 18:48:09;;;;;;;;;77.33;60.33;;;;;;;;5049781;28;8809;-68
2023/02/15 18:50:35;;;;;;;;;74.25;58.75;;;;;;;;5058818;28;14349;-67
2023/02/15 18:53:02;;;;;;;;;68.33;58.67;;;;;;;;5066851;28;8806;-67
2023/02/15 18:55:27;;;;;;;;;80.50;60.00;;;;;;;;5046932;28;13757;-68
2023/02/15 18:57:54;;;;;;;;;80.00;63.00;;;;;;;;5029064;28;13696;-68
2023/02/15 19:00:28;;;;;;;;;71.67;57.33;;;;;;;;5048004;28;13602;-68
2023/02/15 19:02:54;;;;;;;;;80.50;62.75;;;;;;;;5061584;28;13798;-67
2023/02/15 19:05:21;;;;;;;;;82.00;64.80;;;;;;;;5065182;28;14256;-67
2023/02/15 19:07:49;;;;;;;;;72.33;58.33;;;;;;;;5068930;28;8811;-67
2023/02/15 19:10:18;;;;;;;;;76.33;62.00;;;;;;;;5054482;28;13603;-66
2023/02/15 19:12:43;;;;;;;;;79.75;63.50;;;;;;;;5055112;28;14515;-67
2023/02/15 19:15:15;;;;;;;;;75.25;60.00;;;;;;;;5064976;28;13594;-68
2023/02/15 19:17:41;;;;;;;;;75.67;58.67;;;;;;;;5064079;28;13671;-67
2023/02/15 19:20:08;;;;;;;;;82.67;63.67;;;;;;;;5055490;28;14456;-67
2023/02/15 19:22:34;;;;;;;;;82.20;64.60;;;;;;;;5052869;28;13636;-68
2023/02/15 19:25:01;;;;;;;;;71.00;58.00;;;;;;;;5068443;28;9576;-68
2023/02/15 19:27:29;;;;;;;;;75.00;57.67;;;;;;;;5053534;28;8840;-67
2023/02/15 19:29:56;;;;;;;;;76.00;59.00;;;;;;;;5045072;28;13637;-69
2023/02/15 19:32:21;;;;;;;;;73.67;59.00;;;;;;;;5051078;28;13602;-69
2023/02/15 19:34:46;;;;;;;;;67.33;57.33;;;;;;;;5067866;28;8921;-70
2023/02/15 19:37:33;;;;;;;;;80.00;60.00;;;;;;;;5069037;28;8790;-70
2023/02/15 19:40:00;;;;;;;;;66.00;56.00;;;;;;;;5053338;28;8890;-70
2023/02/15 19:42:25;;;;;;;;;69.25;55.00;;;;;;;;5042914;28;13745;-70
2023/02/15 19:44:51;;;;;;;;;82.75;64.00;;;;;;;;5042217;28;13660;-70
2023/02/15 19:47:16;;;;;;;;;73.67;57.67;;;;;;;;5047490;28;8827;-73
2023/02/15 19:49:42;;;;;;;;;68.00;58.00;;;;;;;;5049442;28;8903;-69
2023/02/15 19:52:22;;;;;;;;;82.75;63.25;;;;;;;;5042168;28;14363;-69
2023/02/15 19:54:48;;;;;;;;;76.25;61.00;;;;;;;;5045069;28;13735;-72
2023/02/15 19:57:13;;;;;;;;;72.50;59.00;;;;;;;;5051184;28;14721;-71
2023/02/15 19:59:39;;;;;;;;;72.67;57.00;;;;;;;;5048697;28;9607;-69
2023/02/15 20:02:06;;;;;;;;;67.33;53.67;;;;;;;;5053681;28;8798;-69
2023/02/15 20:04:31;;;;;;;;;75.00;60.50;;;;;;;;5064814;28;13677;-71
2023/02/15 20:06:58;;;;;;;;;76.67;61.00;;;;;;;;5060087;28;14359;-69
2023/02/15 20:09:36;;;;;;;;;64.33;55.67;;;;;;;;5048566;28;8789;-69
2023/02/15 20:12:01;;;;;;;;;73.33;59.33;;;;;;;;5057276;28;13790;-69
2023/02/15 20:14:27;;;;;;;;;76.00;61.33;;;;;;;;5048460;28;8994;-69
2023/02/15 20:16:52;;;;;;;;;70.00;56.33;;;;;;;;5048437;28;8785;-69
2023/02/15 20:19:17;;;;;;;;;60.33;50.67;;;;;;;;5048704;28;8882;-69
2023/02/15 20:21:44;;;;;;;;;80.33;59.00;;;;;;;;5065945;28;8837;-72
2023/02/15 20:24:14;;;;;;;;;73.33;57.00;;;;;;;;5051048;28;9018;-71
2023/02/15 20:26:39;;;;;;;;;76.50;61.00;;;;;;;;5044874;28;13716;-71
2023/02/15 20:29:05;;;;;;;;;77.25;60.50;;;;;;;;5044761;28;13666;-70
2023/02/15 20:31:31;;;;;;;;;78.00;62.33;;;;;;;;5067540;28;8917;-68
2023/02/15 20:33:57;;;;;;;;;72.00;58.50;;;;;;;;5068678;28;13566;-70
2023/02/15 20:36:23;;;;;;;;;82.00;61.50;;;;;;;;5052957;28;13698;-69
2023/02/15 20:38:49;;;;;;;;;83.75;66.00;;;;;;;;5045480;28;14307;-70
2023/02/15 20:43:59;;;;;;;;;81.00;62.75;;;;;;;;5044826;28;13601;-69
2023/02/15 20:46:25;;;;;;;;;80.00;63.25;;;;;;;;5046266;28;13627;-70
2023/02/15 20:48:50;;;;;;;;;72.50;61.00;;;;;;;;5050340;28;8898;-70
2023/02/15 20:51:17;;;;;;;;;63.25;51.00;;;;;;;;5048979;28;13577;-72
2023/02/15 20:53:42;;;;;;;;;69.00;56.00;;;;;;;;5051453;28;8833;-70
2023/02/15 20:56:13;;;;;;;;;80.50;62.75;;;;;;;;5045356;28;14442;-71
2023/02/15 20:58:40;;;;;;;;;71.00;58.00;;;;;;;;5032543;28;8829;-70
2023/02/15 21:01:09;;;;;;;;;92.25;69.25;;;;;;;;5061278;28;14272;-70
2023/02/15 21:03:35;;;;;;;;;83.75;65.50;;;;;;;;5067635;28;14561;-70
2023/02/15 21:06:00;;;;;;;;;78.50;61.50;;;;;;;;5071597;28;8837;-68
2023/02/15 21:08:29;;;;;;;;;85.67;63.00;;;;;;;;5050315;28;8809;-69
2023/02/15 21:10:55;;;;;;;;;84.00;67.00;;;;;;;;5046361;28;13621;-70
2023/02/15 21:13:21;;;;;;;;;83.67;66.00;;;;;;;;5045553;28;13751;-68
2023/02/15 21:15:47;;;;;;;;;77.50;64.00;;;;;;;;5050741;28;11566;-70
2023/02/15 21:18:23;;;;;;;;;87.50;68.75;;;;;;;;5047807;28;13674;-70
2023/02/15 21:20:50;;;;;;;;;85.00;68.50;;;;;;;;5046303;28;14360;-70
2023/02/15 21:23:17;;;;;;;;;86.25;66.75;;;;;;;;5047776;28;13628;-70
2023/02/15 21:25:42;;;;;;;;;87.00;67.75;;;;;;;;5048031;28;14410;-71
2023/02/15 21:28:18;;;;;;;;;78.00;61.33;;;;;;;;5052008;28;8893;-72
2023/02/15 21:30:44;;;;;;;;;84.33;64.00;;;;;;;;5059725;28;8821;-70
2023/02/15 21:33:09;;;;;;;;;83.50;66.50;;;;;;;;5056651;28;13587;-70
2023/02/15 21:35:36;;;;;;;;;70.00;58.33;;;;;;;;5049824;28;8813;-70
2023/02/15 21:38:02;;;;;;;;;85.00;65.00;;;;;;;;5062569;28;13684;-69
2023/02/15 21:40:28;;;;;;;;;87.00;68.00;;;;;;;;5067190;28;13527;-70
2023/02/15 21:48:41;;;;;;;;;74.25;61.50;;;;;;;;5043818;28;14347;-70
2023/02/15 21:53:51;;;;;;;;;80.67;63.00;;;;;;;;5043567;28;8798;-71
2023/02/15 21:56:18;;;;;;;;;83.00;65.67;;;;;;;;5041301;28;14517;-70
2023/02/15 21:58:43;;;;;;;;;90.25;66.75;;;;;;;;5043441;28;13636;-70
2023/02/15 22:01:18;;;;;;;;;82.67;66.33;;;;;;;;5043685;28;13802;-72
2023/02/15 22:03:44;;;;;;;;;84.00;63.40;;;;;;;;5043692;28;13752;-73
2023/02/15 22:06:10;;;;;;;;;74.75;60.00;;;;;;;;5044485;28;13721;-70
2023/02/15 22:08:36;;;;;;;;;65.00;54.67;;;;;;;;5043646;28;13638;-71
2023/02/15 22:11:01;;;;;;;;;79.00;59.25;;;;;;;;5042109;28;13523;-72